ENVAEVVA

Guest
Details From ENVA - Vaernes
To EVVA - VENTSPILS INTL
Flight Number -
Tags generated
Created
Modified
Stats Distance 506 nm / 937 km
Max Altitude 35,000 ft / 10,668 m
Waypoints 8
Social Downloads 0
Likes 0
Share VATSIM

Download

Looking for another format? Having issues loading an existing format? Contact us
Advertisement - Login to hide

Notes

Basic altitude profile: - Ascent Rate: 2500ft/min - Ascent Speed: 250kts - Cruise Altitude: 35000ft - Cruise Speed: 420kts - Descent Rate: 1500ft/min - Descent Speed: 250kts Options: - Use NATs: yes - Use PACOTS: yes - Use low airways: yes - Use high airways: yes

Route

ENVA OSS UY430 HMR XILAN UY39 NEKET EVVA

ID Type Via Altitude Latitude Longitude Leg Dist Tot Dist Heading (true) Name
O ENVA APT - 0 ft / 0 m 63.45760˚ 10.91798˚ - 0 nm - Vaernes
OSS VOR - 33,800 ft / 10,302 m 63.19956˚ 14.48756˚ 97 nm 97 nm 98° / 101° OSTERSUND VOR-DME
OSLAV FIX UY430 (AWY-HI) 35,000 ft / 10,668 m 62.72636˚ 15.18331˚ 34 nm 131 nm 146° / 147° -
DEGAL FIX UY430 (AWY-HI) 35,000 ft / 10,668 m 60.63883˚ 17.95667˚ 148 nm 279 nm 147° / 149° -
HMR VOR UY430 (AWY-HI) 35,000 ft / 10,668 m 60.27931˚ 18.39158˚ 25 nm 304 nm 149° / 149° HAMMAR VOR-DME
XILAN FIX - 33,900 ft / 10,333 m 59.65931˚ 19.07606˚ 42 nm 347 nm 151° / 151° -
NEKET FIX UY39 (AWY-HI) 27,500 ft / 8,382 m 58.30444˚ 20.57861˚ 93 nm 441 nm 150° / 151° -
O EVVA APT - 0 ft / 0 m 57.35780˚ 21.54417˚ 64 nm 505 nm 151° / 152° VENTSPILS INTL

Altitude Profile

Advertisement - Login to hide

Weather


0- 5 10 15 20 25 30 35+ Temperature / ° C

Clouds and Precipitation
Forecast for 2017-12-14 00:00 UTC. Updated 2 hours ago

Ground ~20,000 ft ~40,000 ft Winds

ENVA

Details ICAO ENVA (TRD)
Name Vaernes
Region Norway
Timezone Europe/Oslo (UTC+1.0)
Stats Elevation 56 ft / 17 m (AMSL)
Location 63.457605° 10.917980°
Runways 1
Magnetic Variation 3.494° E

METAR

ENVA 140020Z 10005KT CAVOK M08/M09 Q0982 RMK WIND 670FT 09007KT

Decode

TAF

TAF ENVA 132300Z 1400/1424 11006KT CAVOK

Decode

Departure Runways

ID Width Length Bearing (true) Bearing (mag) Surface Threshold Offset Overrun Length
09 148 ft / 45 m 9,356 ft / 2,852 m 90.21° 86.72° Asphalt 984 ft / 300 m 0 ft / 0 m
27 148 ft / 45 m 9,356 ft / 2,852 m 270.26° 266.77° Asphalt 689 ft / 210 m 0 ft / 0 m

EVVA

Details ICAO EVVA (VTS)
Name VENTSPILS INTL
Region Latvia
Timezone Europe/Riga (UTC+2.0)
Stats Elevation 19 ft / 6 m (AMSL)
Location 57.357800° 21.544165°
Runways 1
Magnetic Variation 6.959° E

METAR

EVVA 140020Z AUTO 16013KT 9999 SCT015 01/M01 Q0999

Decode

TAF

Not found

Destination Runways

ID Width Length Bearing (true) Bearing (mag) Surface Threshold Offset Overrun Length
03 105 ft / 32 m 4,251 ft / 1,296 m 35.42° 28.46° Asphalt 0 ft / 0 m 0 ft / 0 m
21 105 ft / 32 m 4,251 ft / 1,296 m 215.43° 208.47° Asphalt 0 ft / 0 m 0 ft / 0 m

Popular Alternatives